sensor_id;sensor_type;location;lat;lon;timestamp;temperature;humidity
14016;DHT22;7083;48.854;9.158;2023-11-22T00:00:12;7.30;99.90
14016;DHT22;7083;48.854;9.158;2023-11-22T00:02:40;6.10;99.90
14016;DHT22;7083;48.854;9.158;2023-11-22T00:05:08;6.00;99.90
14016;DHT22;7083;48.854;9.158;2023-11-22T00:07:36;5.90;99.90
14016;DHT22;7083;48.854;9.158;2023-11-22T00:10:04;5.70;99.90
14016;DHT22;7083;48.854;9.158;2023-11-22T00:12:31;5.60;99.90
14016;DHT22;7083;48.854;9.158;2023-11-22T00:15:02;5.50;99.90
14016;DHT22;7083;48.854;9.158;2023-11-22T00:17:29;5.40;99.90
14016;DHT22;7083;48.854;9.158;2023-11-22T00:19:56;5.40;99.90
14016;DHT22;7083;48.854;9.158;2023-11-22T00:22:24;5.30;99.90
14016;DHT22;7083;48.854;9.158;2023-11-22T00:24:53;5.20;99.90
14016;DHT22;7083;48.854;9.158;2023-11-22T00:27:19;5.20;99.90
14016;DHT22;7083;48.854;9.158;2023-11-22T00:29:47;5.10;99.90
14016;DHT22;7083;48.854;9.158;2023-11-22T00:32:14;5.10;99.90
14016;DHT22;7083;48.854;9.158;2023-11-22T00:34:40;5.00;99.90
14016;DHT22;7083;48.854;9.158;2023-11-22T00:37:07;5.00;99.90
14016;DHT22;7083;48.854;9.158;2023-11-22T00:39:35;4.90;99.90
14016;DHT22;7083;48.854;9.158;2023-11-22T00:42:02;4.90;99.90
14016;DHT22;7083;48.854;9.158;2023-11-22T00:44:30;4.80;99.90
14016;DHT22;7083;48.854;9.158;2023-11-22T00:46:56;4.80;99.90
14016;DHT22;7083;48.854;9.158;2023-11-22T00:49:23;4.70;99.90
14016;DHT22;7083;48.854;9.158;2023-11-22T00:51:50;4.70;99.90
14016;DHT22;7083;48.854;9.158;2023-11-22T00:54:17;4.70;99.90
14016;DHT22;7083;48.854;9.158;2023-11-22T00:56:46;4.70;99.90
14016;DHT22;7083;48.854;9.158;2023-11-22T00:59:13;4.60;99.90
14016;DHT22;7083;48.854;9.158;2023-11-22T01:01:40;4.50;99.90
14016;DHT22;7083;48.854;9.158;2023-11-22T01:04:07;4.60;99.90
14016;DHT22;7083;48.854;9.158;2023-11-22T01:06:34;4.50;99.90
14016;DHT22;7083;48.854;9.158;2023-11-22T01:09:02;4.50;99.90
14016;DHT22;7083;48.854;9.158;2023-11-22T01:11:29;4.50;99.90
14016;DHT22;7083;48.854;9.158;2023-11-22T01:13:57;4.50;99.90
14016;DHT22;7083;48.854;9.158;2023-11-22T01:16:24;4.40;99.90
14016;DHT22;7083;48.854;9.158;2023-11-22T01:18:50;4.40;99.90
14016;DHT22;7083;48.854;9.158;2023-11-22T01:21:18;4.30;99.90
14016;DHT22;7083;48.854;9.158;2023-11-22T01:23:45;4.30;99.90
14016;DHT22;7083;48.854;9.158;2023-11-22T01:26:12;5.40;99.90
14016;DHT22;7083;48.854;9.158;2023-11-22T01:28:38;4.30;99.90
14016;DHT22;7083;48.854;9.158;2023-11-22T01:31:12;4.20;99.90
14016;DHT22;7083;48.854;9.158;2023-11-22T01:33:39;4.20;99.90
14016;DHT22;7083;48.854;9.158;2023-11-22T01:36:06;4.10;99.90
14016;DHT22;7083;48.854;9.158;2023-11-22T01:38:33;4.00;99.90
14016;DHT22;7083;48.854;9.158;2023-11-22T01:41:00;4.00;99.90
14016;DHT22;7083;48.854;9.158;2023-11-22T01:43:27;4.00;99.90
14016;DHT22;7083;48.854;9.158;2023-11-22T01:45:54;5.90;99.90
14016;DHT22;7083;48.854;9.158;2023-11-22T01:48:22;3.90;99.90
14016;DHT22;7083;48.854;9.158;2023-11-22T01:50:50;3.90;99.90
14016;DHT22;7083;48.854;9.158;2023-11-22T01:53:16;3.80;99.90
14016;DHT22;7083;48.854;9.158;2023-11-22T01:55:44;3.80;99.90
14016;DHT22;7083;48.854;9.158;2023-11-22T01:58:11;3.70;99.90
14016;DHT22;7083;48.854;9.158;2023-11-22T02:00:44;3.70;99.90
14016;DHT22;7083;48.854;9.158;2023-11-22T02:03:11;3.60;99.90
14016;DHT22;7083;48.854;9.158;2023-11-22T02:05:41;3.50;99.90
14016;DHT22;7083;48.854;9.158;2023-11-22T02:08:09;3.50;99.90
14016;DHT22;7083;48.854;9.158;2023-11-22T02:10:36;3.40;99.90
14016;DHT22;7083;48.854;9.158;2023-11-22T02:13:03;3.40;99.90
14016;DHT22;7083;48.854;9.158;2023-11-22T02:15:32;3.40;99.90
14016;DHT22;7083;48.854;9.158;2023-11-22T02:17:59;4.60;99.90
14016;DHT22;7083;48.854;9.158;2023-11-22T02:20:26;3.30;99.90
14016;DHT22;7083;48.854;9.158;2023-11-22T02:22:54;3.20;99.90
14016;DHT22;7083;48.854;9.158;2023-11-22T02:25:22;3.20;99.90
14016;DHT22;7083;48.854;9.158;2023-11-22T02:27:49;3.10;99.90
14016;DHT22;7083;48.854;9.158;2023-11-22T02:30:16;3.10;99.90
14016;DHT22;7083;48.854;9.158;2023-11-22T02:32:43;3.10;99.90
14016;DHT22;7083;48.854;9.158;2023-11-22T02:35:10;3.10;99.90
14016;DHT22;7083;48.854;9.158;2023-11-22T02:37:37;3.10;99.90
14016;DHT22;7083;48.854;9.158;2023-11-22T02:40:06;3.00;99.90
14016;DHT22;7083;48.854;9.158;2023-11-22T02:42:38;3.00;99.90
14016;DHT22;7083;48.854;9.158;2023-11-22T02:45:05;3.00;99.90
14016;DHT22;7083;48.854;9.158;2023-11-22T02:47:31;3.00;99.90
14016;DHT22;7083;48.854;9.158;2023-11-22T02:50:01;3.00;99.90
14016;DHT22;7083;48.854;9.158;2023-11-22T02:52:28;2.90;99.90
14016;DHT22;7083;48.854;9.158;2023-11-22T02:54:55;2.90;99.90
14016;DHT22;7083;48.854;9.158;2023-11-22T02:57:21;2.90;99.90
14016;DHT22;7083;48.854;9.158;2023-11-22T02:59:49;2.90;99.90
14016;DHT22;7083;48.854;9.158;2023-11-22T03:02:16;2.90;99.90
14016;DHT22;7083;48.854;9.158;2023-11-22T03:04:43;2.90;99.90
14016;DHT22;7083;48.854;9.158;2023-11-22T03:07:10;2.80;99.90
14016;DHT22;7083;48.854;9.158;2023-11-22T03:09:36;2.80;99.90
14016;DHT22;7083;48.854;9.158;2023-11-22T03:12:04;2.80;99.90
14016;DHT22;7083;48.854;9.158;2023-11-22T03:14:31;2.80;99.90
14016;DHT22;7083;48.854;9.158;2023-11-22T03:17:00;2.80;99.90
14016;DHT22;7083;48.854;9.158;2023-11-22T03:19:26;2.70;99.90
14016;DHT22;7083;48.854;9.158;2023-11-22T03:21:54;2.70;99.90
14016;DHT22;7083;48.854;9.158;2023-11-22T03:24:21;2.80;99.90
14016;DHT22;7083;48.854;9.158;2023-11-22T03:26:48;2.80;99.90
14016;DHT22;7083;48.854;9.158;2023-11-22T03:29:15;2.80;99.90
14016;DHT22;7083;48.854;9.158;2023-11-22T03:31:43;2.80;99.90
14016;DHT22;7083;48.854;9.158;2023-11-22T03:34:13;2.80;99.90
14016;DHT22;7083;48.854;9.158;2023-11-22T03:36:40;2.80;99.90
14016;DHT22;7083;48.854;9.158;2023-11-22T03:39:07;3.00;99.90
14016;DHT22;7083;48.854;9.158;2023-11-22T03:41:35;2.80;99.90
14016;DHT22;7083;48.854;9.158;2023-11-22T03:44:03;2.80;99.90
14016;DHT22;7083;48.854;9.158;2023-11-22T03:46:29;2.80;99.90
14016;DHT22;7083;48.854;9.158;2023-11-22T03:48:56;2.90;99.90
14016;DHT22;7083;48.854;9.158;2023-11-22T03:51:24;2.80;99.90
14016;DHT22;7083;48.854;9.158;2023-11-22T03:53:51;2.80;99.90
14016;DHT22;7083;48.854;9.158;2023-11-22T03:56:19;2.80;99.90
14016;DHT22;7083;48.854;9.158;2023-11-22T03:58:46;2.80;99.90
14016;DHT22;7083;48.854;9.158;2023-11-22T04:01:14;2.80;99.90
14016;DHT22;7083;48.854;9.158;2023-11-22T04:03:41;2.80;99.90
14016;DHT22;7083;48.854;9.158;2023-11-22T04:06:08;2.80;99.90
14016;DHT22;7083;48.854;9.158;2023-11-22T04:08:36;2.80;99.90
14016;DHT22;7083;48.854;9.158;2023-11-22T04:11:03;2.80;99.90
14016;DHT22;7083;48.854;9.158;2023-11-22T04:13:30;2.90;99.90
14016;DHT22;7083;48.854;9.158;2023-11-22T04:15:57;2.90;99.90
14016;DHT22;7083;48.854;9.158;2023-11-22T04:18:24;2.90;99.90
14016;DHT22;7083;48.854;9.158;2023-11-22T04:20:52;2.90;99.90
14016;DHT22;7083;48.854;9.158;2023-11-22T04:23:19;2.80;99.90
14016;DHT22;7083;48.854;9.158;2023-11-22T04:25:48;2.80;99.90
14016;DHT22;7083;48.854;9.158;2023-11-22T04:28:14;2.60;99.90
14016;DHT22;7083;48.854;9.158;2023-11-22T04:30:44;2.80;99.90
14016;DHT22;7083;48.854;9.158;2023-11-22T04:33:11;2.80;99.90
14016;DHT22;7083;48.854;9.158;2023-11-22T04:35:40;2.70;99.90
14016;DHT22;7083;48.854;9.158;2023-11-22T04:38:07;2.60;99.90
14016;DHT22;7083;48.854;9.158;2023-11-22T04:40:34;2.70;99.90
14016;DHT22;7083;48.854;9.158;2023-11-22T04:43:02;2.60;99.90
14016;DHT22;7083;48.854;9.158;2023-11-22T04:45:29;2.60;99.90
14016;DHT22;7083;48.854;9.158;2023-11-22T04:47:55;2.60;99.90
14016;DHT22;7083;48.854;9.158;2023-11-22T04:50:22;2.60;99.90
14016;DHT22;7083;48.854;9.158;2023-11-22T04:52:50;2.60;99.90
14016;DHT22;7083;48.854;9.158;2023-11-22T04:55:17;2.60;99.90
14016;DHT22;7083;48.854;9.158;2023-11-22T04:57:45;2.60;99.90
14016;DHT22;7083;48.854;9.158;2023-11-22T05:00:13;2.50;99.90
14016;DHT22;7083;48.854;9.158;2023-11-22T05:02:40;2.50;99.90
14016;DHT22;7083;48.854;9.158;2023-11-22T05:05:07;2.50;99.90
14016;DHT22;7083;48.854;9.158;2023-11-22T05:07:35;2.50;99.90
14016;DHT22;7083;48.854;9.158;2023-11-22T05:10:03;2.50;99.90
14016;DHT22;7083;48.854;9.158;2023-11-22T05:12:29;2.50;99.90
14016;DHT22;7083;48.854;9.158;2023-11-22T05:14:56;2.50;99.90
14016;DHT22;7083;48.854;9.158;2023-11-22T05:17:24;2.50;99.90
14016;DHT22;7083;48.854;9.158;2023-11-22T05:19:51;2.50;99.90
14016;DHT22;7083;48.854;9.158;2023-11-22T05:22:18;2.50;99.90
14016;DHT22;7083;48.854;9.158;2023-11-22T05:24:44;2.50;99.90
14016;DHT22;7083;48.854;9.158;2023-11-22T05:27:14;2.50;99.90
14016;DHT22;7083;48.854;9.158;2023-11-22T05:29:41;2.50;99.90
14016;DHT22;7083;48.854;9.158;2023-11-22T05:32:08;2.50;99.90
14016;DHT22;7083;48.854;9.158;2023-11-22T05:34:36;2.50;99.90
14016;DHT22;7083;48.854;9.158;2023-11-22T05:37:06;2.50;99.90
14016;DHT22;7083;48.854;9.158;2023-11-22T05:39:32;2.50;99.90
14016;DHT22;7083;48.854;9.158;2023-11-22T05:41:59;2.50;99.90
14016;DHT22;7083;48.854;9.158;2023-11-22T05:44:26;2.50;99.90
14016;DHT22;7083;48.854;9.158;2023-11-22T05:46:52;2.50;99.90
14016;DHT22;7083;48.854;9.158;2023-11-22T05:49:20;2.60;99.90
14016;DHT22;7083;48.854;9.158;2023-11-22T05:51:50;2.60;99.90
14016;DHT22;7083;48.854;9.158;2023-11-22T05:54:17;4.70;99.90
14016;DHT22;7083;48.854;9.158;2023-11-22T05:56:44;2.60;99.90
14016;DHT22;7083;48.854;9.158;2023-11-22T05:59:10;2.50;99.90
14016;DHT22;7083;48.854;9.158;2023-11-22T06:01:37;2.50;99.90
14016;DHT22;7083;48.854;9.158;2023-11-22T06:04:04;2.50;99.90
14016;DHT22;7083;48.854;9.158;2023-11-22T06:06:31;2.50;99.90
14016;DHT22;7083;48.854;9.158;2023-11-22T06:08:59;2.50;99.90
14016;DHT22;7083;48.854;9.158;2023-11-22T06:11:26;2.50;99.90
14016;DHT22;7083;48.854;9.158;2023-11-22T06:13:52;2.50;99.90
14016;DHT22;7083;48.854;9.158;2023-11-22T06:16:19;2.40;99.90
14016;DHT22;7083;48.854;9.158;2023-11-22T06:18:46;2.40;99.90
14016;DHT22;7083;48.854;9.158;2023-11-22T06:21:12;2.40;99.90
14016;DHT22;7083;48.854;9.158;2023-11-22T06:23:39;2.40;99.90
14016;DHT22;7083;48.854;9.158;2023-11-22T06:26:07;2.30;99.90
14016;DHT22;7083;48.854;9.158;2023-11-22T06:28:34;2.30;99.90
14016;DHT22;7083;48.854;9.158;2023-11-22T06:31:01;2.30;99.90
14016;DHT22;7083;48.854;9.158;2023-11-22T06:33:29;2.30;99.90
14016;DHT22;7083;48.854;9.158;2023-11-22T06:35:55;2.30;99.90
14016;DHT22;7083;48.854;9.158;2023-11-22T06:38:22;2.30;99.90
14016;DHT22;7083;48.854;9.158;2023-11-22T06:40:49;2.30;99.90
14016;DHT22;7083;48.854;9.158;2023-11-22T06:43:17;2.30;99.90
14016;DHT22;7083;48.854;9.158;2023-11-22T06:45:43;2.20;99.90
14016;DHT22;7083;48.854;9.158;2023-11-22T06:48:11;2.20;99.90
14016;DHT22;7083;48.854;9.158;2023-11-22T06:50:37;2.10;99.90
14016;DHT22;7083;48.854;9.158;2023-11-22T06:53:05;2.10;99.90
14016;DHT22;7083;48.854;9.158;2023-11-22T06:55:31;2.00;99.90
14016;DHT22;7083;48.854;9.158;2023-11-22T06:57:58;1.90;99.90
14016;DHT22;7083;48.854;9.158;2023-11-22T07:00:27;1.90;99.90
14016;DHT22;7083;48.854;9.158;2023-11-22T07:02:54;1.90;99.90
14016;DHT22;7083;48.854;9.158;2023-11-22T07:05:21;1.80;99.90
14016;DHT22;7083;48.854;9.158;2023-11-22T07:07:49;1.80;99.90
14016;DHT22;7083;48.854;9.158;2023-11-22T07:10:16;1.80;99.90
14016;DHT22;7083;48.854;9.158;2023-11-22T07:12:46;1.80;99.90
14016;DHT22;7083;48.854;9.158;2023-11-22T07:15:13;1.70;99.90
14016;DHT22;7083;48.854;9.158;2023-11-22T07:17:41;1.70;99.90
14016;DHT22;7083;48.854;9.158;2023-11-22T07:20:09;1.70;99.90
14016;DHT22;7083;48.854;9.158;2023-11-22T07:22:41;1.70;99.90
14016;DHT22;7083;48.854;9.158;2023-11-22T07:25:09;1.70;99.90
14016;DHT22;7083;48.854;9.158;2023-11-22T07:27:43;1.60;99.90
14016;DHT22;7083;48.854;9.158;2023-11-22T07:30:11;1.60;99.90
14016;DHT22;7083;48.854;9.158;2023-11-22T07:32:38;1.60;99.90
14016;DHT22;7083;48.854;9.158;2023-11-22T07:35:08;1.60;99.90
14016;DHT22;7083;48.854;9.158;2023-11-22T07:37:34;1.50;99.90
14016;DHT22;7083;48.854;9.158;2023-11-22T07:40:01;1.50;99.90
14016;DHT22;7083;48.854;9.158;2023-11-22T07:42:29;1.50;99.90
14016;DHT22;7083;48.854;9.158;2023-11-22T07:44:56;1.50;99.90
14016;DHT22;7083;48.854;9.158;2023-11-22T07:47:23;1.50;99.90
14016;DHT22;7083;48.854;9.158;2023-11-22T07:49:50;1.50;99.90
14016;DHT22;7083;48.854;9.158;2023-11-22T07:52:18;1.40;99.90
14016;DHT22;7083;48.854;9.158;2023-11-22T07:54:45;1.50;99.90
14016;DHT22;7083;48.854;9.158;2023-11-22T07:57:11;1.40;99.90
14016;DHT22;7083;48.854;9.158;2023-11-22T07:59:38;1.40;99.90
14016;DHT22;7083;48.854;9.158;2023-11-22T08:02:05;1.40;99.90
14016;DHT22;7083;48.854;9.158;2023-11-22T08:04:36;1.40;99.90
14016;DHT22;7083;48.854;9.158;2023-11-22T08:07:03;1.40;99.90
14016;DHT22;7083;48.854;9.158;2023-11-22T08:09:31;1.30;99.90
14016;DHT22;7083;48.854;9.158;2023-11-22T08:11:58;1.30;99.90
14016;DHT22;7083;48.854;9.158;2023-11-22T08:14:26;1.40;99.90
14016;DHT22;7083;48.854;9.158;2023-11-22T08:16:53;1.40;99.90
14016;DHT22;7083;48.854;9.158;2023-11-22T08:19:20;1.30;99.90
14016;DHT22;7083;48.854;9.158;2023-11-22T08:21:47;1.40;99.90
14016;DHT22;7083;48.854;9.158;2023-11-22T08:24:14;1.40;99.90
14016;DHT22;7083;48.854;9.158;2023-11-22T08:26:42;1.40;99.90
14016;DHT22;7083;48.854;9.158;2023-11-22T08:29:09;1.50;99.90
14016;DHT22;7083;48.854;9.158;2023-11-22T08:31:36;1.60;99.90
14016;DHT22;7083;48.854;9.158;2023-11-22T08:34:03;1.70;99.90
14016;DHT22;7083;48.854;9.158;2023-11-22T08:36:32;1.80;99.90
14016;DHT22;7083;48.854;9.158;2023-11-22T08:38:59;1.90;99.90
14016;DHT22;7083;48.854;9.158;2023-11-22T08:41:27;1.90;99.90
14016;DHT22;7083;48.854;9.158;2023-11-22T08:43:56;1.80;99.90
14016;DHT22;7083;48.854;9.158;2023-11-22T08:46:23;1.80;99.90
14016;DHT22;7083;48.854;9.158;2023-11-22T08:48:50;1.80;99.90
14016;DHT22;7083;48.854;9.158;2023-11-22T08:51:17;1.70;99.90
14016;DHT22;7083;48.854;9.158;2023-11-22T08:53:44;1.70;99.90
14016;DHT22;7083;48.854;9.158;2023-11-22T08:56:10;1.70;99.90
14016;DHT22;7083;48.854;9.158;2023-11-22T08:58:37;1.70;99.90
14016;DHT22;7083;48.854;9.158;2023-11-22T09:01:06;1.70;99.90
14016;DHT22;7083;48.854;9.158;2023-11-22T09:03:34;1.70;99.90
14016;DHT22;7083;48.854;9.158;2023-11-22T09:06:00;1.60;99.90
14016;DHT22;7083;48.854;9.158;2023-11-22T09:08:28;1.60;99.90
14016;DHT22;7083;48.854;9.158;2023-11-22T09:10:55;1.60;99.90
14016;DHT22;7083;48.854;9.158;2023-11-22T09:13:22;1.60;99.90
14016;DHT22;7083;48.854;9.158;2023-11-22T09:15:50;1.60;99.90
14016;DHT22;7083;48.854;9.158;2023-11-22T09:18:18;1.70;99.90
14016;DHT22;7083;48.854;9.158;2023-11-22T09:20:45;1.80;99.90
14016;DHT22;7083;48.854;9.158;2023-11-22T09:23:11;1.80;99.90
14016;DHT22;7083;48.854;9.158;2023-11-22T09:25:39;1.90;99.90
14016;DHT22;7083;48.854;9.158;2023-11-22T09:28:06;1.90;99.90
14016;DHT22;7083;48.854;9.158;2023-11-22T09:30:34;1.90;99.90
14016;DHT22;7083;48.854;9.158;2023-11-22T09:33:04;2.00;99.90
14016;DHT22;7083;48.854;9.158;2023-11-22T09:35:32;2.00;99.90
14016;DHT22;7083;48.854;9.158;2023-11-22T09:38:01;2.00;99.90
14016;DHT22;7083;48.854;9.158;2023-11-22T09:40:28;2.00;99.90
14016;DHT22;7083;48.854;9.158;2023-11-22T09:42:57;2.00;99.90
14016;DHT22;7083;48.854;9.158;2023-11-22T09:45:25;2.00;99.90
14016;DHT22;7083;48.854;9.158;2023-11-22T09:47:51;2.00;99.90
14016;DHT22;7083;48.854;9.158;2023-11-22T09:50:20;2.00;99.90
14016;DHT22;7083;48.854;9.158;2023-11-22T09:52:52;2.00;99.90
14016;DHT22;7083;48.854;9.158;2023-11-22T09:55:25;2.00;99.90
14016;DHT22;7083;48.854;9.158;2023-11-22T09:57:55;2.00;99.90
14016;DHT22;7083;48.854;9.158;2023-11-22T10:00:23;2.00;99.90
14016;DHT22;7083;48.854;9.158;2023-11-22T10:02:53;2.10;99.90
14016;DHT22;7083;48.854;9.158;2023-11-22T10:05:20;2.10;99.90
14016;DHT22;7083;48.854;9.158;2023-11-22T10:07:47;2.20;99.90
14016;DHT22;7083;48.854;9.158;2023-11-22T10:10:16;2.30;99.90
14016;DHT22;7083;48.854;9.158;2023-11-22T10:12:44;2.30;99.90
14016;DHT22;7083;48.854;9.158;2023-11-22T10:15:12;2.40;99.90
14016;DHT22;7083;48.854;9.158;2023-11-22T10:17:39;2.40;99.90
14016;DHT22;7083;48.854;9.158;2023-11-22T10:20:07;2.40;99.90
14016;DHT22;7083;48.854;9.158;2023-11-22T10:22:44;2.50;99.90
14016;DHT22;7083;48.854;9.158;2023-11-22T10:25:14;2.50;99.90
14016;DHT22;7083;48.854;9.158;2023-11-22T10:27:44;2.60;99.90
14016;DHT22;7083;48.854;9.158;2023-11-22T10:30:11;2.60;99.90
14016;DHT22;7083;48.854;9.158;2023-11-22T10:32:38;2.70;99.90
14016;DHT22;7083;48.854;9.158;2023-11-22T10:35:06;2.70;99.90
14016;DHT22;7083;48.854;9.158;2023-11-22T10:37:33;2.80;99.90
14016;DHT22;7083;48.854;9.158;2023-11-22T10:40:01;2.80;99.90
14016;DHT22;7083;48.854;9.158;2023-11-22T10:42:33;2.80;99.90
14016;DHT22;7083;48.854;9.158;2023-11-22T10:45:01;2.90;99.90
14016;DHT22;7083;48.854;9.158;2023-11-22T10:47:29;2.90;99.90
14016;DHT22;7083;48.854;9.158;2023-11-22T10:49:57;3.00;99.90
14016;DHT22;7083;48.854;9.158;2023-11-22T10:52:27;3.00;99.90
14016;DHT22;7083;48.854;9.158;2023-11-22T10:55:01;2.90;99.90
14016;DHT22;7083;48.854;9.158;2023-11-22T10:57:33;3.00;99.90
14016;DHT22;7083;48.854;9.158;2023-11-22T11:00:03;3.00;99.90
14016;DHT22;7083;48.854;9.158;2023-11-22T11:02:39;3.10;99.90
14016;DHT22;7083;48.854;9.158;2023-11-22T11:05:12;3.10;99.90
14016;DHT22;7083;48.854;9.158;2023-11-22T11:07:48;3.20;99.90
14016;DHT22;7083;48.854;9.158;2023-11-22T11:10:18;3.20;99.90
14016;DHT22;7083;48.854;9.158;2023-11-22T11:12:47;3.30;99.90
14016;DHT22;7083;48.854;9.158;2023-11-22T11:15:15;3.20;99.90
14016;DHT22;7083;48.854;9.158;2023-11-22T11:17:44;3.20;99.90
14016;DHT22;7083;48.854;9.158;2023-11-22T11:20:13;3.10;99.90
14016;DHT22;7083;48.854;9.158;2023-11-22T11:22:43;3.00;99.90
14016;DHT22;7083;48.854;9.158;2023-11-22T11:25:14;3.00;99.90
14016;DHT22;7083;48.854;9.158;2023-11-22T11:27:41;3.00;99.90
14016;DHT22;7083;48.854;9.158;2023-11-22T11:30:46;3.00;99.90
14016;DHT22;7083;48.854;9.158;2023-11-22T11:33:16;3.00;99.90
14016;DHT22;7083;48.854;9.158;2023-11-22T11:35:45;3.10;99.90
14016;DHT22;7083;48.854;9.158;2023-11-22T11:38:13;3.10;99.90
14016;DHT22;7083;48.854;9.158;2023-11-22T11:40:41;3.00;99.90
14016;DHT22;7083;48.854;9.158;2023-11-22T11:43:08;3.00;99.90
14016;DHT22;7083;48.854;9.158;2023-11-22T11:45:38;2.90;99.90
14016;DHT22;7083;48.854;9.158;2023-11-22T11:48:07;2.90;99.90
14016;DHT22;7083;48.854;9.158;2023-11-22T11:50:34;2.80;99.90
14016;DHT22;7083;48.854;9.158;2023-11-22T11:53:01;2.80;99.90
14016;DHT22;7083;48.854;9.158;2023-11-22T11:55:28;2.80;99.90
14016;DHT22;7083;48.854;9.158;2023-11-22T11:57:54;2.90;99.90
14016;DHT22;7083;48.854;9.158;2023-11-22T12:00:22;2.90;99.90
14016;DHT22;7083;48.854;9.158;2023-11-22T12:02:50;2.80;99.90
14016;DHT22;7083;48.854;9.158;2023-11-22T12:05:19;2.80;99.90
14016;DHT22;7083;48.854;9.158;2023-11-22T12:07:46;2.80;99.90
14016;DHT22;7083;48.854;9.158;2023-11-22T12:10:14;2.80;99.90
14016;DHT22;7083;48.854;9.158;2023-11-22T12:12:43;2.80;99.90
14016;DHT22;7083;48.854;9.158;2023-11-22T12:15:11;2.70;99.90
14016;DHT22;7083;48.854;9.158;2023-11-22T12:17:40;2.70;99.90
14016;DHT22;7083;48.854;9.158;2023-11-22T12:20:13;2.70;99.90
14016;DHT22;7083;48.854;9.158;2023-11-22T12:22:42;2.80;99.90
14016;DHT22;7083;48.854;9.158;2023-11-22T12:25:10;2.70;99.90
14016;DHT22;7083;48.854;9.158;2023-11-22T12:27:42;2.70;99.90
14016;DHT22;7083;48.854;9.158;2023-11-22T12:30:22;2.70;99.90
14016;DHT22;7083;48.854;9.158;2023-11-22T12:32:53;2.70;99.90
14016;DHT22;7083;48.854;9.158;2023-11-22T12:35:21;2.70;99.90
14016;DHT22;7083;48.854;9.158;2023-11-22T12:37:49;2.70;99.90
14016;DHT22;7083;48.854;9.158;2023-11-22T12:40:16;2.70;99.90
14016;DHT22;7083;48.854;9.158;2023-11-22T12:42:49;2.70;99.90
14016;DHT22;7083;48.854;9.158;2023-11-22T12:45:19;2.70;99.90
14016;DHT22;7083;48.854;9.158;2023-11-22T12:47:46;2.70;99.90
14016;DHT22;7083;48.854;9.158;2023-11-22T12:50:29;2.70;99.90
14016;DHT22;7083;48.854;9.158;2023-11-22T12:52:57;2.70;99.90
14016;DHT22;7083;48.854;9.158;2023-11-22T12:55:24;2.60;99.90
14016;DHT22;7083;48.854;9.158;2023-11-22T12:57:57;2.60;99.90
14016;DHT22;7083;48.854;9.158;2023-11-22T13:00:25;2.60;99.90
14016;DHT22;7083;48.854;9.158;2023-11-22T13:02:54;2.50;99.90
14016;DHT22;7083;48.854;9.158;2023-11-22T13:05:21;2.50;99.90
14016;DHT22;7083;48.854;9.158;2023-11-22T13:07:48;2.60;99.90
14016;DHT22;7083;48.854;9.158;2023-11-22T13:10:16;2.60;99.90
14016;DHT22;7083;48.854;9.158;2023-11-22T13:12:43;2.60;99.90
14016;DHT22;7083;48.854;9.158;2023-11-22T13:15:11;2.60;99.90
14016;DHT22;7083;48.854;9.158;2023-11-22T13:17:38;2.60;99.90
14016;DHT22;7083;48.854;9.158;2023-11-22T13:20:06;2.60;99.90
14016;DHT22;7083;48.854;9.158;2023-11-22T13:22:39;2.60;99.90
14016;DHT22;7083;48.854;9.158;2023-11-22T13:25:07;2.50;99.90
14016;DHT22;7083;48.854;9.158;2023-11-22T13:27:37;2.50;99.90
14016;DHT22;7083;48.854;9.158;2023-11-22T13:30:04;2.50;99.90
14016;DHT22;7083;48.854;9.158;2023-11-22T13:32:31;2.40;99.90
14016;DHT22;7083;48.854;9.158;2023-11-22T13:34:58;2.40;99.90
14016;DHT22;7083;48.854;9.158;2023-11-22T13:37:25;2.40;99.90
14016;DHT22;7083;48.854;9.158;2023-11-22T13:39:52;2.40;99.90
14016;DHT22;7083;48.854;9.158;2023-11-22T13:42:19;2.40;99.90
14016;DHT22;7083;48.854;9.158;2023-11-22T13:44:47;2.40;99.90
14016;DHT22;7083;48.854;9.158;2023-11-22T13:47:14;2.40;99.90
14016;DHT22;7083;48.854;9.158;2023-11-22T13:49:40;2.40;99.90
14016;DHT22;7083;48.854;9.158;2023-11-22T13:52:08;2.40;99.90
14016;DHT22;7083;48.854;9.158;2023-11-22T13:54:35;2.40;99.90
14016;DHT22;7083;48.854;9.158;2023-11-22T13:57:04;2.50;99.90
14016;DHT22;7083;48.854;9.158;2023-11-22T13:59:31;2.60;99.90
14016;DHT22;7083;48.854;9.158;2023-11-22T14:01:59;2.60;99.90
14016;DHT22;7083;48.854;9.158;2023-11-22T14:04:26;4.30;99.90
14016;DHT22;7083;48.854;9.158;2023-11-22T14:06:53;2.60;99.90
14016;DHT22;7083;48.854;9.158;2023-11-22T14:09:19;2.60;99.90
14016;DHT22;7083;48.854;9.158;2023-11-22T14:11:46;2.60;99.90
14016;DHT22;7083;48.854;9.158;2023-11-22T14:14:14;2.50;99.90
14016;DHT22;7083;48.854;9.158;2023-11-22T14:16:44;2.50;99.90
14016;DHT22;7083;48.854;9.158;2023-11-22T14:19:15;2.50;99.90
14016;DHT22;7083;48.854;9.158;2023-11-22T14:21:42;2.50;99.90
14016;DHT22;7083;48.854;9.158;2023-11-22T14:24:09;2.30;99.90
14016;DHT22;7083;48.854;9.158;2023-11-22T14:26:36;2.40;99.90
14016;DHT22;7083;48.854;9.158;2023-11-22T14:29:03;2.40;99.90
14016;DHT22;7083;48.854;9.158;2023-11-22T14:31:31;2.40;99.90
14016;DHT22;7083;48.854;9.158;2023-11-22T14:33:58;2.40;99.90
14016;DHT22;7083;48.854;9.158;2023-11-22T14:36:26;2.40;99.90
14016;DHT22;7083;48.854;9.158;2023-11-22T14:38:52;2.40;99.90
14016;DHT22;7083;48.854;9.158;2023-11-22T14:41:22;2.40;99.90
14016;DHT22;7083;48.854;9.158;2023-11-22T14:43:49;2.30;99.90
14016;DHT22;7083;48.854;9.158;2023-11-22T14:46:15;2.30;99.90
14016;DHT22;7083;48.854;9.158;2023-11-22T14:48:43;2.30;99.90
14016;DHT22;7083;48.854;9.158;2023-11-22T14:51:12;2.30;99.90
14016;DHT22;7083;48.854;9.158;2023-11-22T14:53:40;2.30;99.90
14016;DHT22;7083;48.854;9.158;2023-11-22T14:56:09;2.30;99.90
14016;DHT22;7083;48.854;9.158;2023-11-22T14:58:36;2.30;99.90
14016;DHT22;7083;48.854;9.158;2023-11-22T15:01:03;2.30;99.90
14016;DHT22;7083;48.854;9.158;2023-11-22T15:03:31;2.30;99.90
14016;DHT22;7083;48.854;9.158;2023-11-22T15:05:58;2.30;99.90
14016;DHT22;7083;48.854;9.158;2023-11-22T15:08:25;2.30;99.90
14016;DHT22;7083;48.854;9.158;2023-11-22T15:10:54;2.40;99.90
14016;DHT22;7083;48.854;9.158;2023-11-22T15:13:21;2.30;99.90
14016;DHT22;7083;48.854;9.158;2023-11-22T15:15:50;2.30;99.90
14016;DHT22;7083;48.854;9.158;2023-11-22T15:18:16;2.30;99.90
14016;DHT22;7083;48.854;9.158;2023-11-22T15:20:43;2.30;99.90
14016;DHT22;7083;48.854;9.158;2023-11-22T15:23:10;2.30;99.90
14016;DHT22;7083;48.854;9.158;2023-11-22T15:25:36;2.20;99.90
14016;DHT22;7083;48.854;9.158;2023-11-22T15:28:05;2.20;99.90
14016;DHT22;7083;48.854;9.158;2023-11-22T15:30:32;2.20;99.90
14016;DHT22;7083;48.854;9.158;2023-11-22T15:32:59;2.20;99.90
14016;DHT22;7083;48.854;9.158;2023-11-22T15:35:27;2.20;99.90
14016;DHT22;7083;48.854;9.158;2023-11-22T15:37:54;2.10;99.90
14016;DHT22;7083;48.854;9.158;2023-11-22T15:40:20;2.10;99.90
14016;DHT22;7083;48.854;9.158;2023-11-22T15:42:47;2.00;99.90
14016;DHT22;7083;48.854;9.158;2023-11-22T15:45:16;2.00;99.90
14016;DHT22;7083;48.854;9.158;2023-11-22T15:47:43;2.00;99.90
14016;DHT22;7083;48.854;9.158;2023-11-22T15:50:11;2.00;99.90
14016;DHT22;7083;48.854;9.158;2023-11-22T15:52:37;1.90;99.90
14016;DHT22;7083;48.854;9.158;2023-11-22T15:55:05;1.90;99.90
14016;DHT22;7083;48.854;9.158;2023-11-22T15:57:32;1.90;99.90
14016;DHT22;7083;48.854;9.158;2023-11-22T15:59:59;1.90;99.90
14016;DHT22;7083;48.854;9.158;2023-11-22T16:02:27;1.90;99.90
14016;DHT22;7083;48.854;9.158;2023-11-22T16:04:54;1.90;99.90